createdAt,value
2018-04-28T00:00:55.009Z,7.23
2018-04-28T00:03:23.113Z,7.20
2018-04-28T00:05:51.451Z,7.00
2018-04-28T00:08:23.604Z,12.30
2018-04-28T00:10:52.479Z,5.27
2018-04-28T00:13:21.567Z,5.10
2018-04-28T00:15:49.762Z,5.57
2018-04-28T00:18:20.086Z,5.70
2018-04-28T00:20:49.686Z,8.63
2018-04-28T00:23:18.604Z,6.57
2018-04-28T00:25:50.931Z,5.37
2018-04-28T00:28:27.398Z,8.37
2018-04-28T00:30:57.314Z,6.90
2018-04-28T00:33:25.447Z,6.03
2018-04-28T00:36:05.389Z,6.23
2018-04-28T00:38:33.691Z,8.37
2018-04-28T00:41:01.934Z,5.40
2018-04-28T00:43:31.984Z,5.57
2018-04-28T00:46:05.999Z,6.77
2018-04-28T00:48:44.041Z,6.97
2018-04-28T00:51:14.862Z,7.73
2018-04-28T00:53:42.903Z,8.13
2018-04-28T00:56:26.891Z,5.23
2018-04-28T00:58:57.696Z,9.67
2018-04-28T01:01:31.841Z,8.77
2018-04-28T01:04:20.842Z,7.87
2018-04-28T01:06:49.005Z,8.30
2018-04-28T01:09:17.955Z,6.43
2018-04-28T01:11:46.090Z,7.27
2018-04-28T01:14:15.226Z,8.83
2018-04-28T01:16:54.509Z,8.47
2018-04-28T01:22:29.184Z,7.63
2018-04-28T01:24:59.072Z,7.83
2018-04-28T01:27:34.529Z,6.80
2018-04-28T01:30:23.004Z,9.03
2018-04-28T01:32:57.110Z,9.87
2018-04-28T01:35:26.179Z,9.37
2018-04-28T01:40:53.925Z,7.87
2018-04-28T01:43:26.566Z,8.43
2018-04-28T01:46:10.511Z,7.70
2018-04-28T01:49:00.141Z,7.87
2018-04-28T01:51:29.938Z,7.67
2018-04-28T01:57:13.192Z,9.90
2018-04-28T02:03:24.847Z,5.77
2018-04-28T02:06:11.462Z,8.00
2018-04-28T02:08:39.695Z,10.00
2018-04-28T02:11:14.322Z,8.97
2018-04-28T02:13:45.143Z,8.17
2018-04-28T02:16:37.360Z,9.53
2018-04-28T02:19:07.189Z,6.97
2018-04-28T02:21:55.233Z,8.33
2018-04-28T02:24:44.742Z,8.13
2018-04-28T02:27:15.621Z,8.27
2018-04-28T02:30:13.596Z,8.30
2018-04-28T02:32:47.558Z,7.90
2018-04-28T02:35:20.322Z,9.17
2018-04-28T02:37:50.835Z,9.27
2018-04-28T02:40:19.867Z,7.97
2018-04-28T02:42:59.086Z,7.10
2018-04-28T02:45:31.817Z,6.63
2018-04-28T02:48:11.623Z,10.30
2018-04-28T02:50:42.026Z,8.90
2018-04-28T02:53:12.851Z,6.20
2018-04-28T02:55:48.734Z,8.93
2018-04-28T02:58:30.736Z,7.50
2018-04-28T03:01:03.574Z,9.17
2018-04-28T03:03:46.190Z,6.27
2018-04-28T03:06:20.231Z,8.00
2018-04-28T03:08:50.037Z,7.67
2018-04-28T03:11:20.660Z,5.97
2018-04-28T03:13:50.477Z,6.47
2018-04-28T03:16:30.875Z,7.07
2018-04-28T03:19:12.866Z,6.77
2018-04-28T03:21:41.952Z,6.07
2018-04-28T03:24:26.902Z,7.70
2018-04-28T03:27:25.640Z,6.50
2018-04-28T03:29:58.434Z,5.33
2018-04-28T03:32:42.141Z,9.47
2018-04-28T03:35:21.985Z,6.53
2018-04-28T03:37:56.863Z,7.03
2018-04-28T03:40:25.803Z,6.83
2018-04-28T03:42:58.849Z,7.57
2018-04-28T03:45:29.929Z,8.37
2018-04-28T03:48:29.473Z,5.93
2018-04-28T03:53:54.925Z,8.07
2018-04-28T03:56:23.030Z,7.03
2018-04-28T03:59:03.939Z,7.40
2018-04-28T04:01:44.063Z,5.90
2018-04-28T04:04:19.064Z,7.97
2018-04-28T04:06:53.873Z,10.73
2018-04-28T04:09:26.467Z,7.13
2018-04-28T04:12:06.555Z,8.13
2018-04-28T04:14:58.273Z,7.40
2018-04-28T04:17:36.024Z,6.47
2018-04-28T04:20:28.766Z,7.07
2018-04-28T04:23:14.292Z,7.50
2018-04-28T04:25:51.936Z,7.03
2018-04-28T04:28:20.053Z,9.80
2018-04-28T04:30:58.097Z,8.20
2018-04-28T04:33:29.493Z,8.23
2018-04-28T04:36:12.514Z,6.20
2018-04-28T04:38:40.614Z,8.20
2018-04-28T04:41:30.187Z,10.30
2018-04-28T04:47:18.347Z,5.87
2018-04-28T04:49:59.342Z,6.43
2018-04-28T04:52:33.914Z,7.97
2018-04-28T04:55:12.945Z,5.30
2018-04-28T04:57:46.858Z,5.67
2018-04-28T05:00:34.703Z,9.40
2018-04-28T05:03:14.739Z,5.70
2018-04-28T05:06:04.483Z,8.47
2018-04-28T05:08:36.816Z,5.60
2018-04-28T05:11:23.825Z,7.63
2018-04-28T05:14:00.585Z,7.20
2018-04-28T05:16:37.377Z,9.37
2018-04-28T05:25:39.704Z,11.73
2018-04-28T05:28:17.315Z,7.53
2018-04-28T05:30:46.852Z,8.40
2018-04-28T05:33:27.492Z,9.87
2018-04-28T05:36:07.473Z,8.07
2018-04-28T05:38:57.235Z,7.87
2018-04-28T05:44:17.862Z,7.23
2018-04-28T05:46:57.980Z,5.77
2018-04-28T05:49:31.853Z,7.87
2018-04-28T05:52:12.062Z,7.33
2018-04-28T05:57:47.916Z,7.83
2018-04-28T06:00:24.989Z,9.07
2018-04-28T06:02:59.886Z,6.40
2018-04-28T06:05:52.997Z,7.77
2018-04-28T06:08:44.877Z,7.73
2018-04-28T06:11:25.255Z,8.20
2018-04-28T06:14:21.215Z,8.93
2018-04-28T06:17:01.608Z,8.00
2018-04-28T06:20:04.161Z,6.67
2018-04-28T06:22:32.205Z,8.23
2018-04-28T06:25:01.078Z,5.27
2018-04-28T06:27:29.205Z,8.30
2018-04-28T06:29:57.301Z,8.03
2018-04-28T06:32:26.190Z,8.87
2018-04-28T06:34:54.463Z,7.47
2018-04-28T06:37:22.578Z,7.43
2018-04-28T06:39:51.562Z,6.23
2018-04-28T06:42:20.438Z,9.77
2018-04-28T06:44:48.544Z,8.03
2018-04-28T06:47:17.648Z,7.03
2018-04-28T06:49:46.023Z,9.13
2018-04-28T06:52:15.805Z,7.43
2018-04-28T06:54:43.921Z,10.40
2018-04-28T06:57:12.046Z,6.53
2018-04-28T06:59:40.489Z,10.27
2018-04-28T07:02:09.097Z,7.70
2018-04-28T07:04:37.230Z,9.20
2018-04-28T07:07:07.607Z,8.73
2018-04-28T07:09:37.325Z,8.13
2018-04-28T07:12:06.957Z,6.57
2018-04-28T07:14:35.907Z,7.90
2018-04-28T07:17:04.007Z,6.07
2018-04-28T07:19:32.096Z,5.50
2018-04-28T07:22:00.964Z,7.07
2018-04-28T07:24:30.577Z,7.37
2018-04-28T07:26:59.441Z,8.17
2018-04-28T07:29:27.557Z,7.30
2018-04-28T07:31:56.057Z,6.10
2018-04-28T07:34:24.159Z,8.67
2018-04-28T07:36:52.566Z,8.60
2018-04-28T07:39:21.504Z,5.63
2018-04-28T07:41:51.340Z,6.30
2018-04-28T07:44:19.567Z,9.53
2018-04-28T07:46:48.440Z,6.77
2018-04-28T07:49:17.136Z,8.37
2018-04-28T07:51:46.016Z,6.87
2018-04-28T07:54:15.638Z,5.90
2018-04-28T07:56:44.541Z,7.80
2018-04-28T07:59:13.521Z,7.63
2018-04-28T08:01:42.396Z,8.47
2018-04-28T08:04:10.536Z,6.65
2018-04-28T08:06:38.744Z,6.57
2018-04-28T08:09:07.639Z,8.17
2018-04-28T08:11:35.747Z,8.23
2018-04-28T08:14:03.840Z,9.50
2018-04-28T08:16:32.082Z,8.97
2018-04-28T08:19:01.049Z,7.63
2018-04-28T08:21:29.152Z,7.83
2018-04-28T08:23:57.284Z,9.10
2018-04-28T08:26:25.590Z,7.80
2018-04-28T08:28:53.666Z,7.33
2018-04-28T08:31:21.782Z,7.03
2018-04-28T08:33:49.895Z,8.23
2018-04-28T08:36:18.804Z,8.43
2018-04-28T08:38:47.747Z,8.90
2018-04-28T08:41:16.913Z,9.93
2018-04-28T08:43:46.107Z,8.83
2018-04-28T08:46:14.847Z,7.07
2018-04-28T08:48:44.367Z,6.30
2018-04-28T08:51:13.523Z,9.50
2018-04-28T08:53:41.992Z,7.97
2018-04-28T08:56:11.652Z,7.83
2018-04-28T08:58:40.709Z,7.90
2018-04-28T09:01:10.748Z,6.17
2018-04-28T09:03:39.668Z,6.50
2018-04-28T09:06:08.534Z,5.47
2018-04-28T09:08:37.483Z,6.50
2018-04-28T09:11:05.625Z,8.63
2018-04-28T09:13:34.636Z,8.17
2018-04-28T09:16:02.790Z,6.77
2018-04-28T09:18:31.668Z,7.97
2018-04-28T09:21:01.271Z,8.87
2018-04-28T09:23:31.328Z,6.50
2018-04-28T09:25:59.686Z,7.33
2018-04-28T09:28:28.402Z,4.90
2018-04-28T09:30:57.762Z,4.97
2018-04-28T09:33:26.858Z,7.30
2018-04-28T09:35:55.733Z,5.83
2018-04-28T09:38:25.357Z,5.80
2018-04-28T09:40:54.256Z,8.43
2018-04-28T09:43:23.124Z,7.80
2018-04-28T09:45:51.310Z,7.20
2018-04-28T09:48:20.225Z,6.70
2018-04-28T09:50:48.340Z,7.53
2018-04-28T09:53:16.434Z,8.47
2018-04-28T09:55:44.666Z,7.13
2018-04-28T09:58:12.814Z,8.27
2018-04-28T10:00:56.722Z,7.13
2018-04-28T10:03:30.708Z,8.13
2018-04-28T10:05:58.996Z,7.23
2018-04-28T10:08:27.085Z,6.43
2018-04-28T10:10:55.196Z,8.30
2018-04-28T10:13:23.317Z,7.23
2018-04-28T10:15:51.897Z,6.13
2018-04-28T10:18:20.012Z,6.57
2018-04-28T10:20:48.962Z,7.47
2018-04-28T10:23:17.145Z,8.37
2018-04-28T10:25:45.488Z,6.43
2018-04-28T10:28:14.136Z,6.30
2018-04-28T10:30:43.027Z,6.17
2018-04-28T10:33:11.935Z,7.33
2018-04-28T10:35:40.109Z,9.10
2018-04-28T10:38:08.210Z,5.43
2018-04-28T10:40:36.336Z,8.63
2018-04-28T10:43:05.222Z,5.93
2018-04-28T10:45:34.088Z,7.27
2018-04-28T10:48:02.193Z,6.60
2018-04-28T10:50:31.189Z,5.87
2018-04-28T10:53:00.137Z,5.33
2018-04-28T10:55:28.279Z,6.90
2018-04-28T10:57:56.401Z,7.10
2018-04-28T11:00:24.498Z,7.00
2018-04-28T11:02:53.473Z,8.20
2018-04-28T11:05:22.374Z,4.40
2018-04-28T11:07:51.239Z,7.33
2018-04-28T11:10:20.121Z,8.33
2018-04-28T11:12:49.038Z,4.83
2018-04-28T11:15:18.004Z,6.13
2018-04-28T11:17:46.098Z,5.60
2018-04-28T11:20:15.234Z,5.10
2018-04-28T11:22:43.387Z,5.33
2018-04-28T11:25:12.239Z,9.07
2018-04-28T11:27:40.965Z,7.67
2018-04-28T11:30:09.076Z,4.70
2018-04-28T11:32:37.385Z,5.27
2018-04-28T11:35:05.536Z,6.63
2018-04-28T11:37:33.648Z,6.40
2018-04-28T11:40:02.553Z,5.40
2018-04-28T11:42:31.524Z,5.87
2018-04-28T11:45:00.521Z,3.90
2018-04-28T11:47:30.206Z,5.00
2018-04-28T11:49:59.889Z,4.37
2018-04-28T11:52:27.990Z,3.27
2018-04-28T11:54:56.858Z,5.37
2018-04-28T11:57:24.999Z,4.97
2018-04-28T11:59:53.114Z,4.33
2018-04-28T12:02:21.230Z,5.03
2018-04-28T12:04:50.124Z,5.43
2018-04-28T12:07:18.988Z,6.03
2018-04-28T12:09:47.089Z,3.90
2018-04-28T12:12:16.166Z,4.50
2018-04-28T12:14:45.757Z,3.80
2018-04-28T12:17:13.851Z,3.53
2018-04-28T12:19:43.787Z,4.73
2018-04-28T12:22:13.825Z,3.83
2018-04-28T12:24:42.058Z,4.67
2018-04-28T12:27:11.059Z,4.27
2018-04-28T12:29:40.004Z,4.40
2018-04-28T12:32:08.105Z,4.67
2018-04-28T12:34:36.297Z,2.30
2018-04-28T12:37:05.170Z,2.70
2018-04-28T12:39:33.280Z,2.57
2018-04-28T12:42:01.404Z,3.40
2018-04-28T12:44:29.482Z,3.83
2018-04-28T12:46:59.099Z,2.70
2018-04-28T12:49:27.970Z,2.40
2018-04-28T12:51:56.091Z,3.33
2018-04-28T12:54:26.274Z,5.07
2018-04-28T12:56:54.381Z,4.17
2018-04-28T12:59:22.634Z,4.80
2018-04-28T13:01:50.780Z,3.63
2018-04-28T13:04:19.145Z,3.27
2018-04-28T13:06:48.078Z,4.90
2018-04-28T13:09:17.147Z,5.13
2018-04-28T13:11:45.358Z,2.90
2018-04-28T13:14:13.445Z,3.83
2018-04-28T13:16:42.324Z,4.00
2018-04-28T13:19:11.183Z,4.47
2018-04-28T13:21:39.859Z,2.90
2018-04-28T13:24:08.058Z,3.43
2018-04-28T13:26:36.948Z,4.33
2018-04-28T13:29:05.919Z,3.57
2018-04-28T13:31:34.741Z,4.07
2018-04-28T13:34:03.619Z,4.93
2018-04-28T13:36:31.839Z,2.63
2018-04-28T13:39:00.577Z,2.43
2018-04-28T13:41:28.688Z,3.70
2018-04-28T13:43:56.813Z,2.77
2018-04-28T13:46:25.111Z,2.83
2018-04-28T13:48:53.222Z,2.20
2018-04-28T13:51:21.338Z,2.35
2018-04-28T13:53:50.988Z,2.60
2018-04-28T13:56:19.209Z,4.23
2018-04-28T13:58:47.337Z,2.83
2018-04-28T14:01:15.470Z,1.73
2018-04-28T14:03:43.580Z,2.50
2018-04-28T14:06:11.680Z,2.83
2018-04-28T14:08:39.833Z,2.57
2018-04-28T14:11:07.930Z,4.03
2018-04-28T14:13:36.112Z,2.87
2018-04-28T14:16:04.239Z,1.97
2018-04-28T14:18:32.389Z,2.23
2018-04-28T14:21:01.265Z,3.10
2018-04-28T14:23:29.383Z,4.73
2018-04-28T14:25:57.484Z,1.80
2018-04-28T14:28:25.581Z,2.30
2018-04-28T14:30:53.691Z,1.80
2018-04-28T14:33:21.816Z,2.53
2018-04-28T14:35:49.901Z,3.10
2018-04-28T14:38:18.022Z,3.47
2018-04-28T14:40:46.149Z,1.97
2018-04-28T14:43:15.044Z,3.67
2018-04-28T14:45:44.161Z,3.10
2018-04-28T14:48:12.312Z,2.20
2018-04-28T14:50:40.561Z,3.67
2018-04-28T14:53:08.683Z,2.73
2018-04-28T14:55:36.780Z,3.20
2018-04-28T14:58:04.887Z,3.90
2018-04-28T15:00:33.057Z,4.07
2018-04-28T15:03:01.150Z,2.90
2018-04-28T15:05:30.165Z,2.67
2018-04-28T15:07:59.344Z,1.67
2018-04-28T15:10:27.472Z,3.17
2018-04-28T15:12:55.613Z,1.83
2018-04-28T15:15:23.732Z,3.83
2018-04-28T15:17:51.852Z,2.43
2018-04-28T15:20:20.725Z,3.13
2018-04-28T15:22:48.834Z,3.20
2018-04-28T15:25:16.957Z,2.13
2018-04-28T15:27:45.206Z,3.37
2018-04-28T15:30:13.966Z,2.50
2018-04-28T15:32:42.104Z,2.03
2018-04-28T15:35:10.196Z,2.37
2018-04-28T15:37:39.493Z,2.43
2018-04-28T15:40:07.579Z,2.40
2018-04-28T15:42:35.719Z,2.63
2018-04-28T15:45:03.888Z,3.07
2018-04-28T15:47:31.988Z,2.67
2018-04-28T15:50:00.969Z,1.87
2018-04-28T15:52:29.733Z,2.77
2018-04-28T15:54:57.863Z,2.73
2018-04-28T15:57:27.094Z,2.50
2018-04-28T15:59:55.251Z,2.03
2018-04-28T16:02:23.371Z,1.70
2018-04-28T16:04:51.480Z,2.63
2018-04-28T16:07:19.603Z,1.93
2018-04-28T16:09:47.714Z,2.80
2018-04-28T16:12:15.896Z,4.07
2018-04-28T16:14:44.056Z,3.17
2018-04-28T16:17:13.409Z,4.87
2018-04-28T16:19:41.505Z,3.03
2018-04-28T16:22:09.618Z,3.03
2018-04-28T16:24:37.908Z,2.90
2018-04-28T16:27:06.006Z,4.20
2018-04-28T16:29:34.131Z,3.53
2018-04-28T16:32:02.362Z,2.87
2018-04-28T16:34:30.483Z,4.50
2018-04-28T16:36:58.611Z,5.40
2018-04-28T16:39:26.867Z,4.17
2018-04-28T16:41:55.038Z,2.13
2018-04-28T16:44:23.311Z,4.13
2018-04-28T16:46:51.535Z,1.70
2018-04-28T16:49:20.438Z,3.03
2018-04-28T16:51:49.328Z,2.40
2018-04-28T16:54:18.186Z,2.97
2018-04-28T16:56:46.289Z,2.83
2018-04-28T16:59:15.166Z,3.80
2018-04-28T17:01:43.273Z,2.47
2018-04-28T17:04:11.361Z,4.00
2018-04-28T17:06:39.533Z,2.43
2018-04-28T17:09:07.608Z,2.40
2018-04-28T17:11:35.722Z,4.30
2018-04-28T17:14:03.820Z,1.83
2018-04-28T17:16:32.073Z,2.67
2018-04-28T17:19:00.974Z,2.80
2018-04-28T17:21:29.837Z,2.40
2018-04-28T17:23:58.107Z,2.50
2018-04-28T17:26:26.216Z,3.13
2018-04-28T17:28:55.215Z,1.77
2018-04-28T17:31:23.977Z,3.47
2018-04-28T17:33:52.923Z,3.30
2018-04-28T17:36:21.032Z,3.47
2018-04-28T17:38:49.161Z,3.10
2018-04-28T17:41:17.443Z,2.47
2018-04-28T17:43:45.741Z,3.27
2018-04-28T17:46:14.342Z,2.20
2018-04-28T17:48:42.432Z,2.43
2018-04-28T17:51:11.375Z,3.10
2018-04-28T17:53:39.477Z,3.03
2018-04-28T17:56:07.669Z,2.13
2018-04-28T17:58:36.545Z,1.80
2018-04-28T18:01:04.643Z,3.30
2018-04-28T18:03:34.300Z,3.87
2018-04-28T18:06:02.425Z,3.03
2018-04-28T18:08:31.287Z,5.93
2018-04-28T18:10:59.385Z,3.07
2018-04-28T18:13:28.277Z,2.63
2018-04-28T18:15:57.158Z,3.23
2018-04-28T18:18:25.245Z,2.50
2018-04-28T18:20:53.366Z,2.90
2018-04-28T18:23:21.651Z,2.47
2018-04-28T18:25:49.870Z,3.20
2018-04-28T18:28:17.933Z,2.43
2018-04-28T18:30:46.806Z,3.37
2018-04-28T18:33:14.926Z,3.00
2018-04-28T18:35:43.036Z,3.03
2018-04-28T18:38:11.131Z,3.17
2018-04-28T18:40:39.330Z,2.43
2018-04-28T18:43:07.389Z,3.10
2018-04-28T18:45:35.498Z,3.10
2018-04-28T18:48:04.195Z,2.93
2018-04-28T18:50:32.486Z,4.33
2018-04-28T18:53:01.416Z,3.03
2018-04-28T18:55:30.512Z,5.37
2018-04-28T18:57:58.643Z,2.63
2018-04-28T19:00:26.819Z,3.20
2018-04-28T19:02:54.909Z,2.77
2018-04-28T19:05:23.026Z,4.33
2018-04-28T19:07:51.136Z,2.20
2018-04-28T19:10:19.755Z,3.93
2018-04-28T19:12:47.862Z,3.23
2018-04-28T19:15:16.784Z,2.23
2018-04-28T19:17:46.430Z,4.80
2018-04-28T19:20:15.311Z,2.37
2018-04-28T19:22:43.444Z,5.30
2018-04-28T19:25:12.141Z,3.03
2018-04-28T19:27:40.248Z,5.20
2018-04-28T19:30:08.555Z,6.33
2018-04-28T19:32:36.657Z,7.05
2018-04-28T19:35:04.819Z,5.10
2018-04-28T19:37:34.197Z,6.07
2018-04-28T19:40:02.301Z,6.43
2018-04-28T19:42:30.423Z,7.60
2018-04-28T19:44:58.530Z,8.23
2018-04-28T19:47:26.950Z,6.70
2018-04-28T19:49:55.248Z,6.70
2018-04-28T19:52:24.202Z,9.97
2018-04-28T19:54:52.418Z,10.03
2018-04-28T19:57:21.418Z,8.67
2018-04-28T19:59:50.287Z,12.03
2018-04-28T20:02:18.399Z,13.33
2018-04-28T20:04:46.641Z,11.83
2018-04-28T20:07:14.948Z,13.20
2018-04-28T20:09:43.227Z,11.03
2018-04-28T20:12:11.406Z,6.97
2018-04-28T20:14:39.572Z,8.80
2018-04-28T20:17:07.687Z,10.23
2018-04-28T20:19:35.809Z,7.00
2018-04-28T20:22:16.647Z,8.13
2018-04-28T20:24:56.568Z,5.77
2018-04-28T20:27:24.913Z,6.93
2018-04-28T20:29:53.072Z,7.60
2018-04-28T20:32:21.940Z,7.70
2018-04-28T20:34:50.917Z,11.63
2018-04-28T20:37:19.189Z,8.77
2018-04-28T20:39:47.365Z,9.27
2018-04-28T20:42:15.616Z,19.73
2018-04-28T20:44:43.746Z,14.13
2018-04-28T20:47:12.655Z,13.80
2018-04-28T20:49:41.519Z,13.90
2018-04-28T20:52:09.659Z,12.67
2018-04-28T20:54:38.755Z,16.07
2018-04-28T20:57:06.870Z,23.43
2018-04-28T20:59:35.749Z,18.20
2018-04-28T21:02:04.509Z,18.20
2018-04-28T21:04:33.057Z,16.63
2018-04-28T21:07:01.192Z,14.37
2018-04-28T21:09:30.080Z,13.00
2018-04-28T21:11:58.966Z,12.53
2018-04-28T21:14:27.150Z,12.53
2018-04-28T21:16:55.267Z,13.60
2018-04-28T21:19:23.380Z,11.93
2018-04-28T21:21:52.268Z,13.30
2018-04-28T21:24:20.405Z,10.87
2018-04-28T21:26:48.604Z,10.43
2018-04-28T21:29:18.369Z,11.10
2018-04-28T21:31:46.487Z,9.83
2018-04-28T21:34:14.632Z,10.17
2018-04-28T21:36:44.242Z,11.57
2018-04-28T21:39:12.442Z,11.40
2018-04-28T21:41:41.154Z,12.30
2018-04-28T21:44:10.143Z,11.20
2018-04-28T21:46:40.168Z,10.57
2018-04-28T21:49:09.360Z,8.77
2018-04-28T21:51:39.670Z,10.70
2018-04-28T21:54:07.781Z,10.20
2018-04-28T21:56:35.893Z,10.93
2018-04-28T21:59:04.053Z,9.67
2018-04-28T22:01:32.196Z,10.60
2018-04-28T22:04:01.072Z,12.40
2018-04-28T22:06:29.942Z,10.53
2018-04-28T22:08:59.275Z,11.80
2018-04-28T22:11:27.363Z,11.00
2018-04-28T22:13:55.515Z,12.17
2018-04-28T22:16:24.367Z,11.27
2018-04-28T22:18:52.591Z,11.77
2018-04-28T22:21:21.464Z,10.43
2018-04-28T22:23:50.334Z,13.60
2018-04-28T22:26:18.435Z,12.80
2018-04-28T22:28:47.302Z,10.47
2018-04-28T22:31:15.401Z,11.30
2018-04-28T22:33:44.265Z,13.53
2018-04-28T22:36:12.440Z,11.40
2018-04-28T22:38:40.541Z,11.57
2018-04-28T22:41:08.637Z,13.17
2018-04-28T22:43:36.760Z,12.80
2018-04-28T22:46:04.857Z,12.13
2018-04-28T22:48:33.712Z,14.67
2018-04-28T22:51:02.578Z,12.20
2018-04-28T22:53:30.690Z,13.10
2018-04-28T22:55:58.857Z,15.13
2018-04-28T22:58:26.981Z,14.90
2018-04-28T23:00:55.095Z,15.27
2018-04-28T23:03:23.478Z,17.17
2018-04-28T23:05:51.696Z,16.67
2018-04-28T23:08:19.793Z,16.70
2018-04-28T23:10:48.298Z,17.07
2018-04-28T23:13:16.408Z,16.13
2018-04-28T23:15:45.275Z,17.93
2018-04-28T23:18:15.993Z,16.53
2018-04-28T23:20:44.109Z,17.07
2018-04-28T23:23:12.270Z,15.87
2018-04-28T23:25:40.554Z,17.50
2018-04-28T23:28:08.696Z,16.57
2018-04-28T23:30:37.679Z,17.73
2018-04-28T23:33:05.825Z,16.10
2018-04-28T23:35:33.948Z,21.10
2018-04-28T23:38:02.048Z,18.37
2018-04-28T23:40:30.278Z,18.97
2018-04-28T23:43:00.395Z,20.30
2018-04-28T23:45:28.598Z,22.20
2018-04-28T23:47:58.253Z,21.90
2018-04-28T23:50:26.354Z,21.97
2018-04-28T23:52:54.501Z,23.73
2018-04-28T23:55:22.632Z,21.57
2018-04-28T23:57:51.628Z,18.93
